createdAt,value
2022-08-29T00:00:34.878Z,19.80
2022-08-29T00:02:41.961Z,19.80
2022-08-29T00:04:44.343Z,19.80
2022-08-29T00:06:46.442Z,19.80
2022-08-29T00:08:48.259Z,19.70
2022-08-29T00:10:49.973Z,19.70
2022-08-29T00:12:52.185Z,19.70
2022-08-29T00:14:54.025Z,19.70
2022-08-29T00:16:58.421Z,19.70
2022-08-29T00:19:05.525Z,19.70
2022-08-29T00:21:07.533Z,19.60
2022-08-29T00:23:09.724Z,19.60
2022-08-29T00:25:15.666Z,19.60
2022-08-29T00:27:17.391Z,19.60
2022-08-29T00:29:19.115Z,19.50
2022-08-29T00:31:23.217Z,19.50
2022-08-29T00:33:25.020Z,19.50
2022-08-29T00:35:36.047Z,19.40
2022-08-29T00:37:37.977Z,19.40
2022-08-29T00:39:39.863Z,19.30
2022-08-29T00:41:41.617Z,19.30
2022-08-29T00:43:44.690Z,19.30
2022-08-29T00:46:30.711Z,19.20
2022-08-29T00:48:35.559Z,19.20
2022-08-29T00:51:01.019Z,19.10
2022-08-29T00:53:06.028Z,19.20
2022-08-29T00:55:12.189Z,19.10
2022-08-29T00:57:14.346Z,19.10
2022-08-29T00:59:21.305Z,19.00
2022-08-29T01:01:23.976Z,19.00
2022-08-29T01:03:27.109Z,19.00
2022-08-29T01:05:29.093Z,19.00
2022-08-29T01:07:30.885Z,18.90
2022-08-29T01:09:37.829Z,18.90
2022-08-29T01:11:58.505Z,18.90
2022-08-29T01:14:01.284Z,18.90
2022-08-29T01:16:05.165Z,18.90
2022-08-29T01:18:09.091Z,18.90
2022-08-29T01:20:32.924Z,18.90
2022-08-29T01:23:15.605Z,18.90
2022-08-29T01:25:24.300Z,18.80
2022-08-29T01:27:32.372Z,18.80
2022-08-29T01:29:34.855Z,18.80
2022-08-29T01:31:57.352Z,18.80
2022-08-29T01:33:59.603Z,18.80
2022-08-29T01:36:01.508Z,18.70
2022-08-29T01:38:03.317Z,18.70
2022-08-29T01:40:05.946Z,18.70
2022-08-29T01:42:17.326Z,18.60
2022-08-29T01:44:22.094Z,18.60
2022-08-29T01:46:31.117Z,18.70
2022-08-29T01:48:33.175Z,18.70
2022-08-29T01:50:34.844Z,18.60
2022-08-29T01:52:44.263Z,18.60
2022-08-29T01:54:46.468Z,18.60
2022-08-29T01:56:51.994Z,18.60
2022-08-29T01:58:58.891Z,18.60
2022-08-29T02:01:00.624Z,18.50
2022-08-29T02:03:04.551Z,18.50
2022-08-29T02:05:06.439Z,18.50
2022-08-29T02:07:12.436Z,18.50
2022-08-29T02:09:14.937Z,18.40
2022-08-29T02:11:17.859Z,18.40
2022-08-29T02:13:19.583Z,18.40
2022-08-29T02:15:21.683Z,18.30
2022-08-29T02:17:23.827Z,18.30
2022-08-29T02:19:26.661Z,18.30
2022-08-29T02:21:29.938Z,18.30
2022-08-29T02:23:33.607Z,18.30
2022-08-29T02:25:41.397Z,18.30
2022-08-29T02:27:45.508Z,18.30
2022-08-29T02:29:47.339Z,18.30
2022-08-29T02:31:49.195Z,18.30
2022-08-29T02:33:53.034Z,18.30
2022-08-29T02:35:55.403Z,18.30
2022-08-29T02:37:57.190Z,18.30
2022-08-29T02:39:58.917Z,18.20
2022-08-29T02:42:02.962Z,18.30
2022-08-29T02:44:07.217Z,18.20
2022-08-29T02:46:12.515Z,18.30
2022-08-29T02:48:15.209Z,18.20
2022-08-29T02:50:17.317Z,18.30
2022-08-29T02:52:19.040Z,18.30
2022-08-29T02:54:20.717Z,18.30
2022-08-29T02:56:27.177Z,18.30
2022-08-29T02:58:30.302Z,18.20
2022-08-29T03:00:34.397Z,18.20
2022-08-29T03:02:36.452Z,18.20
2022-08-29T03:04:38.152Z,18.20
2022-08-29T03:06:42.528Z,18.20
2022-08-29T03:08:46.873Z,18.20
2022-08-29T03:10:48.699Z,18.20
2022-08-29T03:12:52.104Z,18.20
2022-08-29T03:14:56.200Z,18.10
2022-08-29T03:16:58.087Z,18.20
2022-08-29T03:18:59.863Z,18.20
2022-08-29T03:21:04.637Z,18.10
2022-08-29T03:23:06.645Z,18.10
2022-08-29T03:25:12.234Z,18.10
2022-08-29T03:27:13.899Z,18.10
2022-08-29T03:29:15.610Z,18.10
2022-08-29T03:31:17.384Z,18.00
2022-08-29T03:33:21.422Z,18.00
2022-08-29T03:35:28.183Z,18.00
2022-08-29T03:37:29.943Z,18.00
2022-08-29T03:39:34.832Z,17.90
2022-08-29T03:41:38.364Z,17.90
2022-08-29T03:43:42.267Z,17.90
2022-08-29T03:45:46.210Z,17.90
2022-08-29T03:47:47.964Z,17.90
2022-08-29T03:49:51.062Z,17.80
2022-08-29T03:51:59.231Z,17.80
2022-08-29T03:54:01.075Z,17.80
2022-08-29T03:56:04.267Z,17.80
2022-08-29T03:58:06.553Z,17.80
2022-08-29T04:00:13.804Z,17.80
2022-08-29T04:02:15.630Z,17.80
2022-08-29T04:04:38.919Z,17.70
2022-08-29T04:06:41.618Z,17.70
2022-08-29T04:08:45.084Z,17.70
2022-08-29T04:10:46.774Z,17.70
2022-08-29T04:12:54.503Z,17.70
2022-08-29T04:14:56.851Z,17.70
2022-08-29T04:16:58.561Z,17.60
2022-08-29T04:19:00.672Z,17.60
2022-08-29T04:21:02.739Z,17.60
2022-08-29T04:23:09.832Z,17.60
2022-08-29T04:25:13.612Z,17.60
2022-08-29T04:27:17.642Z,17.60
2022-08-29T04:29:19.748Z,17.50
2022-08-29T04:31:24.563Z,17.60
2022-08-29T04:33:27.097Z,17.50
2022-08-29T04:35:31.595Z,17.50
2022-08-29T04:37:35.529Z,17.50
2022-08-29T04:39:37.870Z,17.50
2022-08-29T04:41:40.522Z,17.50
2022-08-29T04:43:42.762Z,17.50
2022-08-29T04:45:46.597Z,17.50
2022-08-29T04:47:48.328Z,17.40
2022-08-29T04:49:55.370Z,17.40
2022-08-29T04:52:02.621Z,17.40
2022-08-29T04:54:06.643Z,17.40
2022-08-29T04:56:10.721Z,17.40
2022-08-29T04:58:14.530Z,17.40
2022-08-29T05:00:20.136Z,17.30
2022-08-29T05:02:22.739Z,17.30
2022-08-29T05:04:25.230Z,17.30
2022-08-29T05:06:27.482Z,17.30
2022-08-29T05:08:29.947Z,17.30
2022-08-29T05:10:32.765Z,17.30
2022-08-29T05:12:34.663Z,17.40
2022-08-29T05:14:38.558Z,17.40
2022-08-29T05:16:42.616Z,17.40
2022-08-29T05:18:46.181Z,17.40
2022-08-29T05:20:49.451Z,17.40
2022-08-29T05:22:51.168Z,17.40
2022-08-29T05:25:00.573Z,17.50
2022-08-29T05:27:07.973Z,17.50
2022-08-29T05:29:11.682Z,17.50
2022-08-29T05:31:14.673Z,17.60
2022-08-29T05:33:17.140Z,17.60
2022-08-29T05:35:21.098Z,17.60
2022-08-29T05:37:23.354Z,17.70
2022-08-29T05:39:25.112Z,17.80
2022-08-29T05:41:29.419Z,17.80
2022-08-29T05:43:40.254Z,17.80
2022-08-29T05:45:42.881Z,17.90
2022-08-29T05:47:45.743Z,17.90
2022-08-29T05:49:48.373Z,18.00
2022-08-29T05:51:53.438Z,18.00
2022-08-29T05:53:55.187Z,18.00
2022-08-29T05:55:57.017Z,18.00
2022-08-29T05:57:59.107Z,18.00
2022-08-29T06:00:00.868Z,18.00
2022-08-29T06:02:05.780Z,18.00
2022-08-29T06:04:07.876Z,18.10
2022-08-29T06:06:09.645Z,18.10
2022-08-29T06:08:11.509Z,18.10
2022-08-29T06:10:15.547Z,18.10
2022-08-29T06:12:17.283Z,18.10
2022-08-29T06:14:19.694Z,18.10
2022-08-29T06:16:24.028Z,18.20
2022-08-29T06:18:35.385Z,18.20
2022-08-29T06:20:41.479Z,18.10
2022-08-29T06:22:43.180Z,18.20
2022-08-29T06:24:45.865Z,18.20
2022-08-29T06:26:49.021Z,18.20
2022-08-29T06:28:50.714Z,18.20
2022-08-29T06:30:52.494Z,18.20
2022-08-29T06:32:54.450Z,18.20
2022-08-29T06:34:56.160Z,18.30
2022-08-29T06:36:59.488Z,18.30
2022-08-29T06:39:04.277Z,18.30
2022-08-29T06:41:08.280Z,18.30
2022-08-29T06:43:17.017Z,18.40
2022-08-29T06:45:18.717Z,18.40
2022-08-29T06:47:20.394Z,18.50
2022-08-29T06:49:22.850Z,18.50
2022-08-29T06:51:26.163Z,18.50
2022-08-29T06:53:32.306Z,18.50
2022-08-29T06:55:35.619Z,18.50
2022-08-29T06:57:42.226Z,18.60
2022-08-29T06:59:43.918Z,18.50
2022-08-29T07:01:48.141Z,18.60
2022-08-29T07:03:52.499Z,18.60
2022-08-29T07:05:54.359Z,18.60
2022-08-29T07:07:56.239Z,18.60
2022-08-29T07:09:58.096Z,18.60
2022-08-29T07:12:00.169Z,18.60
2022-08-29T07:14:08.440Z,18.60
2022-08-29T07:16:18.158Z,18.60
2022-08-29T07:18:20.692Z,18.70
2022-08-29T07:20:23.617Z,18.80
2022-08-29T07:22:28.258Z,18.80
2022-08-29T07:24:32.478Z,18.80
2022-08-29T07:26:41.260Z,18.90
2022-08-29T07:28:47.627Z,18.90
2022-08-29T07:31:02.358Z,19.00
2022-08-29T07:33:04.884Z,19.10
2022-08-29T07:35:10.407Z,19.10
2022-08-29T07:37:17.455Z,19.10
2022-08-29T07:39:19.809Z,19.20
2022-08-29T07:41:21.577Z,19.20
2022-08-29T07:43:27.748Z,19.30
2022-08-29T07:45:29.751Z,19.40
2022-08-29T07:47:32.478Z,19.50
2022-08-29T07:49:41.213Z,19.60
2022-08-29T07:51:44.487Z,19.70
2022-08-29T07:53:47.087Z,19.80
2022-08-29T07:55:48.854Z,19.90
2022-08-29T07:57:52.324Z,19.90
2022-08-29T07:59:54.050Z,20.00
2022-08-29T08:01:55.896Z,20.10
2022-08-29T08:03:58.324Z,20.10
2022-08-29T08:06:06.874Z,20.10
2022-08-29T08:08:14.803Z,20.20
2022-08-29T08:10:19.539Z,20.20
2022-08-29T08:12:22.972Z,20.30
2022-08-29T08:14:34.613Z,20.30
2022-08-29T08:16:37.599Z,20.30
2022-08-29T08:18:41.177Z,20.40
2022-08-29T08:20:48.196Z,20.40
2022-08-29T08:22:49.928Z,20.50
2022-08-29T08:24:51.665Z,20.60
2022-08-29T08:26:53.968Z,20.60
2022-08-29T08:28:55.682Z,20.70
2022-08-29T08:31:03.621Z,20.80
2022-08-29T08:33:07.828Z,20.90
2022-08-29T08:35:12.954Z,21.00
2022-08-29T08:37:27.773Z,21.10
2022-08-29T08:39:29.943Z,21.30
2022-08-29T08:41:43.468Z,21.40
2022-08-29T08:43:56.634Z,21.50
2022-08-29T08:45:58.429Z,21.70
2022-08-29T08:48:10.386Z,21.70
2022-08-29T08:50:21.401Z,21.90
2022-08-29T08:52:34.501Z,22.00
2022-08-29T08:54:49.574Z,22.10
2022-08-29T08:57:01.386Z,22.30
2022-08-29T08:59:10.265Z,22.30
2022-08-29T09:02:07.575Z,22.50
2022-08-29T09:04:27.819Z,22.60
2022-08-29T09:06:40.021Z,22.80
2022-08-29T09:08:50.183Z,22.80
2022-08-29T09:11:06.638Z,22.90
2022-08-29T09:13:26.054Z,23.00
2022-08-29T09:15:52.767Z,23.10
2022-08-29T09:18:05.083Z,23.30
2022-08-29T09:20:13.234Z,23.40
2022-08-29T09:22:26.525Z,23.50
2022-08-29T09:24:44.258Z,23.60
2022-08-29T09:26:46.075Z,23.80
2022-08-29T09:28:50.845Z,23.90
2022-08-29T09:31:14.503Z,24.00
2022-08-29T09:33:17.445Z,24.10
2022-08-29T09:35:25.386Z,24.20
2022-08-29T09:37:34.232Z,24.40
2022-08-29T09:39:36.763Z,24.50
2022-08-29T09:41:39.052Z,24.60
2022-08-29T09:43:40.733Z,24.70
2022-08-29T09:46:23.418Z,24.80
2022-08-29T09:48:25.335Z,24.90
2022-08-29T09:50:29.293Z,25.00
2022-08-29T09:52:31.623Z,25.00
2022-08-29T09:54:35.886Z,25.10
2022-08-29T09:56:40.789Z,25.20
2022-08-29T09:58:45.161Z,25.20
2022-08-29T10:01:11.831Z,25.30
2022-08-29T10:03:22.695Z,25.50
2022-08-29T10:05:42.427Z,25.50
2022-08-29T10:07:51.493Z,25.60
2022-08-29T10:10:02.075Z,25.60
2022-08-29T10:12:12.467Z,25.60
2022-08-29T10:14:26.155Z,25.70
2022-08-29T10:16:27.954Z,25.70
2022-08-29T10:18:57.931Z,25.80
2022-08-29T10:21:07.946Z,25.90
2022-08-29T10:23:26.639Z,25.90
2022-08-29T10:25:41.561Z,25.90
2022-08-29T10:28:13.762Z,26.00
2022-08-29T10:30:21.518Z,26.00
2022-08-29T10:32:51.623Z,26.10
2022-08-29T10:35:27.550Z,26.20
2022-08-29T10:37:57.878Z,26.40
2022-08-29T10:40:10.169Z,26.50
2022-08-29T10:42:21.993Z,26.60
2022-08-29T10:44:38.105Z,26.70
2022-08-29T10:46:42.798Z,26.80
2022-08-29T10:48:44.492Z,26.90
2022-08-29T10:51:22.327Z,27.00
2022-08-29T10:53:46.077Z,27.20
2022-08-29T10:55:52.086Z,27.20
2022-08-29T10:57:59.926Z,27.30
2022-08-29T11:00:31.138Z,27.40
2022-08-29T11:02:43.315Z,27.40
2022-08-29T11:04:59.401Z,27.50
2022-08-29T11:07:06.861Z,27.50
2022-08-29T11:09:14.735Z,27.50
2022-08-29T11:11:21.636Z,27.60
2022-08-29T11:13:31.798Z,27.60
2022-08-29T11:15:45.153Z,27.70
2022-08-29T11:18:01.098Z,27.80
2022-08-29T11:20:20.374Z,27.90
2022-08-29T11:22:29.356Z,28.00
2022-08-29T11:24:34.857Z,28.00
2022-08-29T11:26:45.575Z,28.00
2022-08-29T11:28:53.105Z,28.10
2022-08-29T11:31:22.956Z,28.10
2022-08-29T11:33:46.154Z,28.20
2022-08-29T11:36:38.923Z,28.40
2022-08-29T11:38:59.375Z,28.50
2022-08-29T11:41:30.688Z,28.60
2022-08-29T11:43:40.273Z,28.70
2022-08-29T11:45:44.707Z,28.80
2022-08-29T11:47:46.405Z,28.90
2022-08-29T11:49:51.369Z,28.90
2022-08-29T11:52:17.786Z,29.00
2022-08-29T11:54:25.176Z,29.10
2022-08-29T11:56:30.400Z,29.10
2022-08-29T11:58:32.787Z,29.20
2022-08-29T12:00:41.480Z,29.20
2022-08-29T12:02:48.729Z,29.20
2022-08-29T12:04:55.315Z,29.10
2022-08-29T12:07:01.311Z,29.20
2022-08-29T12:09:58.415Z,29.10
2022-08-29T12:12:08.184Z,29.10
2022-08-29T12:14:35.557Z,29.10
2022-08-29T12:16:49.906Z,29.10
2022-08-29T12:18:56.384Z,29.20
2022-08-29T12:21:01.433Z,29.20
2022-08-29T12:23:11.528Z,29.20
2022-08-29T12:25:43.721Z,29.30
2022-08-29T12:28:18.271Z,29.40
2022-08-29T12:30:20.643Z,29.40
2022-08-29T12:32:43.899Z,29.40
2022-08-29T12:35:07.340Z,29.40
2022-08-29T12:37:26.600Z,29.50
2022-08-29T12:39:56.656Z,29.60
2022-08-29T12:42:26.301Z,29.80
2022-08-29T12:44:35.278Z,29.90
2022-08-29T12:46:40.440Z,30.00
2022-08-29T12:48:57.404Z,30.10
2022-08-29T12:51:00.732Z,30.20
2022-08-29T12:53:16.629Z,30.30
2022-08-29T12:55:29.441Z,30.40
2022-08-29T12:57:38.477Z,30.50
2022-08-29T12:59:53.633Z,30.50
2022-08-29T13:01:57.579Z,30.60
2022-08-29T13:04:03.238Z,30.60
2022-08-29T13:06:13.050Z,30.60
2022-08-29T13:08:27.692Z,30.80
2022-08-29T13:10:30.299Z,30.90
2022-08-29T13:12:35.243Z,30.90
2022-08-29T13:14:58.973Z,31.00
2022-08-29T13:17:01.037Z,31.10
2022-08-29T13:19:17.993Z,31.20
2022-08-29T13:21:24.982Z,31.20
2022-08-29T13:23:29.865Z,31.20
2022-08-29T13:25:34.415Z,31.20
2022-08-29T13:27:36.218Z,31.20
2022-08-29T13:29:42.346Z,31.20
2022-08-29T13:31:44.383Z,31.10
2022-08-29T13:33:46.159Z,31.10
2022-08-29T13:35:47.891Z,31.00
2022-08-29T13:38:09.576Z,30.90
2022-08-29T13:40:45.712Z,30.90
2022-08-29T13:42:47.525Z,30.80
2022-08-29T13:44:49.233Z,30.80
2022-08-29T13:46:52.669Z,30.80
2022-08-29T13:49:01.878Z,30.80
2022-08-29T13:51:06.650Z,30.90
2022-08-29T13:53:08.900Z,31.00
2022-08-29T13:55:10.993Z,31.10
2022-08-29T13:57:16.089Z,31.10
2022-08-29T13:59:21.566Z,31.20
2022-08-29T14:02:07.516Z,31.30
2022-08-29T14:03:52.696Z,31.30
2022-08-29T14:05:56.357Z,31.40
2022-08-29T14:07:58.181Z,31.50
2022-08-29T14:10:01.076Z,31.50
2022-08-29T14:12:03.863Z,31.70
2022-08-29T14:14:06.743Z,31.70
2022-08-29T14:16:10.380Z,31.80
2022-08-29T14:18:12.380Z,31.90
2022-08-29T14:20:15.514Z,31.90
2022-08-29T14:22:20.155Z,31.90
2022-08-29T14:24:22.727Z,32.00
2022-08-29T14:26:30.682Z,32.00
2022-08-29T14:28:35.707Z,32.10
2022-08-29T14:30:42.523Z,32.10
2022-08-29T14:32:54.045Z,32.20
2022-08-29T14:34:55.819Z,32.30
2022-08-29T14:36:58.364Z,32.30
2022-08-29T14:39:00.782Z,32.30
2022-08-29T14:41:02.661Z,32.20
2022-08-29T14:43:04.444Z,32.20
2022-08-29T14:45:10.710Z,32.20
2022-08-29T14:47:21.339Z,32.20
2022-08-29T14:49:23.179Z,32.10
2022-08-29T14:51:24.965Z,32.10
2022-08-29T14:53:37.889Z,32.00
2022-08-29T14:55:54.551Z,32.00
2022-08-29T14:57:59.021Z,31.90
2022-08-29T15:00:00.701Z,31.80
2022-08-29T15:02:10.026Z,31.70
2022-08-29T15:04:11.979Z,31.60
2022-08-29T15:06:15.855Z,31.60
2022-08-29T15:08:17.934Z,31.50
2022-08-29T15:10:26.975Z,31.50
2022-08-29T15:12:28.992Z,31.50
2022-08-29T15:14:31.218Z,31.40
2022-08-29T15:16:33.042Z,31.40
2022-08-29T15:19:24.519Z,31.40
2022-08-29T15:20:57.150Z,31.40
2022-08-29T15:22:59.950Z,31.30
2022-08-29T15:25:03.349Z,31.30
2022-08-29T15:27:05.840Z,31.20
2022-08-29T15:29:08.984Z,31.20
2022-08-29T15:31:11.003Z,31.10
2022-08-29T15:33:15.865Z,31.10
2022-08-29T15:35:20.159Z,31.10
2022-08-29T15:37:22.897Z,31.00
2022-08-29T15:39:29.275Z,30.90
2022-08-29T15:41:32.619Z,30.90
2022-08-29T15:43:36.815Z,30.90
2022-08-29T15:45:38.996Z,30.80
2022-08-29T15:47:46.040Z,30.80
2022-08-29T15:49:48.967Z,30.80
2022-08-29T15:51:54.398Z,30.80
2022-08-29T15:53:56.213Z,30.90
2022-08-29T15:55:58.113Z,30.90
2022-08-29T15:57:59.954Z,31.00
2022-08-29T16:00:01.914Z,30.90
2022-08-29T16:02:13.273Z,31.00
2022-08-29T16:04:17.931Z,31.10
2022-08-29T16:06:19.700Z,31.10
2022-08-29T16:08:22.441Z,31.00
2022-08-29T16:10:31.717Z,31.00
2022-08-29T16:12:33.834Z,31.00
2022-08-29T16:16:57.703Z,30.90
2022-08-29T16:18:59.627Z,30.80
2022-08-29T16:21:02.380Z,30.70
2022-08-29T16:23:07.931Z,30.60
2022-08-29T16:25:12.046Z,30.50
2022-08-29T16:27:26.974Z,30.40
2022-08-29T16:29:31.423Z,30.30
2022-08-29T16:31:33.804Z,30.20
2022-08-29T16:33:35.565Z,30.20
2022-08-29T16:35:37.266Z,30.00
2022-08-29T16:37:39.381Z,30.00
2022-08-29T16:39:41.192Z,29.90
2022-08-29T16:41:45.221Z,29.80
2022-08-29T16:43:52.046Z,29.70
2022-08-29T16:45:53.802Z,29.60
2022-08-29T16:47:57.704Z,29.50
2022-08-29T16:50:03.804Z,29.40
2022-08-29T16:52:06.175Z,29.40
2022-08-29T16:54:08.135Z,29.30
2022-08-29T16:56:14.057Z,29.20
2022-08-29T16:58:34.513Z,29.10
2022-08-29T17:00:39.941Z,29.00
2022-08-29T17:02:41.786Z,28.90
2022-08-29T17:04:43.668Z,28.90
2022-08-29T17:06:48.825Z,28.80
2022-08-29T17:08:50.753Z,28.80
2022-08-29T17:10:54.167Z,28.70
2022-08-29T17:12:55.948Z,28.60
2022-08-29T17:14:57.715Z,28.60
2022-08-29T17:17:00.533Z,28.50
2022-08-29T17:19:03.455Z,28.50
2022-08-29T17:21:06.321Z,28.40
2022-08-29T17:23:12.879Z,28.30
2022-08-29T17:25:14.659Z,28.30
2022-08-29T17:27:21.171Z,28.20
2022-08-29T17:29:25.991Z,28.20
2022-08-29T17:31:27.852Z,28.10
2022-08-29T17:33:32.519Z,28.00
2022-08-29T17:35:34.240Z,28.00
2022-08-29T17:37:37.888Z,27.90
2022-08-29T17:39:40.153Z,27.80
2022-08-29T17:41:42.973Z,27.80
2022-08-29T17:43:50.119Z,27.70
2022-08-29T17:45:54.525Z,27.60
2022-08-29T17:47:56.535Z,27.60
2022-08-29T17:49:58.285Z,27.50
2022-08-29T17:52:00.355Z,27.50
2022-08-29T17:54:03.400Z,27.40
2022-08-29T17:56:29.391Z,27.30
2022-08-29T17:58:31.131Z,27.30
2022-08-29T18:00:33.744Z,27.30
2022-08-29T18:02:37.990Z,27.20
2022-08-29T18:04:39.691Z,27.10
2022-08-29T18:06:42.143Z,27.10
2022-08-29T18:08:48.142Z,27.00
2022-08-29T18:10:50.396Z,26.90
2022-08-29T18:12:52.135Z,26.90
2022-08-29T18:14:56.349Z,26.80
2022-08-29T18:17:01.060Z,26.80
2022-08-29T18:19:03.844Z,26.80
2022-08-29T18:21:05.971Z,26.70
2022-08-29T18:23:08.109Z,26.60
2022-08-29T18:25:11.418Z,26.60
2022-08-29T18:27:13.161Z,26.50
2022-08-29T18:29:18.014Z,26.40
2022-08-29T18:31:20.300Z,26.30
2022-08-29T18:33:22.261Z,26.20
2022-08-29T18:35:25.347Z,26.20
2022-08-29T18:37:28.567Z,26.10
2022-08-29T18:39:30.611Z,26.10
2022-08-29T18:41:34.915Z,26.10
2022-08-29T18:43:39.661Z,26.00
2022-08-29T18:45:42.867Z,26.00
2022-08-29T18:47:44.834Z,25.90
2022-08-29T18:50:05.167Z,25.90
2022-08-29T18:52:07.083Z,25.90
2022-08-29T18:54:10.738Z,25.80
2022-08-29T18:56:12.688Z,25.80
2022-08-29T18:58:16.489Z,25.80
2022-08-29T19:00:18.909Z,25.70
2022-08-29T19:02:20.836Z,25.70
2022-08-29T19:04:25.435Z,25.60
2022-08-29T19:06:29.744Z,25.60
2022-08-29T19:08:32.170Z,25.60
2022-08-29T19:10:38.156Z,25.50
2022-08-29T19:12:40.231Z,25.50
2022-08-29T19:14:45.950Z,25.50
2022-08-29T19:16:50.967Z,25.40
2022-08-29T19:18:53.149Z,25.40
2022-08-29T19:21:06.238Z,25.40
2022-08-29T19:23:08.843Z,25.30
2022-08-29T19:25:10.840Z,25.30
2022-08-29T19:27:39.685Z,25.20
2022-08-29T19:29:38.706Z,25.20
2022-08-29T19:31:44.790Z,25.20
2022-08-29T19:33:48.376Z,25.10
2022-08-29T19:35:53.619Z,25.10
2022-08-29T19:37:55.824Z,25.00
2022-08-29T19:39:58.158Z,25.00
2022-08-29T19:42:00.096Z,24.90
2022-08-29T19:44:02.176Z,24.90
2022-08-29T19:46:14.379Z,24.90
2022-08-29T19:48:18.832Z,24.80
2022-08-29T19:50:23.507Z,24.80
2022-08-29T19:52:27.930Z,24.80
2022-08-29T19:54:30.923Z,24.70
2022-08-29T19:56:33.388Z,24.70
2022-08-29T19:58:36.378Z,24.60
2022-08-29T20:00:38.796Z,24.60
2022-08-29T20:02:42.898Z,24.60
2022-08-29T20:04:50.720Z,24.60
2022-08-29T20:06:53.938Z,24.50
2022-08-29T20:08:58.699Z,24.50
2022-08-29T20:11:01.210Z,24.40
2022-08-29T20:13:05.442Z,24.40
2022-08-29T20:15:10.146Z,24.30
2022-08-29T20:17:14.708Z,24.30
2022-08-29T20:19:18.798Z,24.30
2022-08-29T20:21:24.705Z,24.20
2022-08-29T20:23:27.431Z,24.20
2022-08-29T20:25:29.191Z,24.10
2022-08-29T20:27:34.405Z,24.10
2022-08-29T20:31:44.916Z,24.00
2022-08-29T20:33:48.218Z,24.00
2022-08-29T20:36:09.259Z,24.00
2022-08-29T20:38:11.533Z,23.90
2022-08-29T20:40:13.547Z,23.90
2022-08-29T20:42:18.209Z,23.80
2022-08-29T20:44:21.538Z,23.80
2022-08-29T20:46:23.341Z,23.80
2022-08-29T20:48:31.325Z,23.70
2022-08-29T20:50:35.447Z,23.70
2022-08-29T20:52:37.977Z,23.60
2022-08-29T20:54:39.765Z,23.70
2022-08-29T20:56:42.814Z,23.60
2022-08-29T20:58:45.357Z,23.60
2022-08-29T21:00:47.152Z,23.50
2022-08-29T21:03:08.120Z,23.50
2022-08-29T21:05:29.235Z,23.50
2022-08-29T21:07:31.009Z,23.50
2022-08-29T21:09:33.468Z,23.40
2022-08-29T21:11:35.218Z,23.40
2022-08-29T21:13:38.990Z,23.40
2022-08-29T21:15:41.978Z,23.40
2022-08-29T21:17:44.874Z,23.30
2022-08-29T21:19:46.805Z,23.30
2022-08-29T21:21:51.039Z,23.30
2022-08-29T21:23:55.101Z,23.30
2022-08-29T21:26:00.437Z,23.20
2022-08-29T21:28:04.193Z,23.20
2022-08-29T21:30:08.827Z,23.20
2022-08-29T21:32:10.612Z,23.10
2022-08-29T21:34:12.911Z,23.10
2022-08-29T21:36:20.424Z,23.00
2022-08-29T21:38:24.211Z,23.00
2022-08-29T21:40:26.146Z,23.00
2022-08-29T21:42:27.927Z,23.00
2022-08-29T21:44:29.881Z,22.90
2022-08-29T21:46:33.949Z,22.90
2022-08-29T21:48:37.236Z,22.90
2022-08-29T21:50:39.034Z,22.90
2022-08-29T21:52:40.752Z,22.90
2022-08-29T21:54:42.513Z,22.90
2022-08-29T21:56:45.295Z,22.90
2022-08-29T21:58:49.891Z,22.80
2022-08-29T22:00:51.623Z,22.80
2022-08-29T22:02:54.439Z,22.70
2022-08-29T22:04:56.210Z,22.70
2022-08-29T22:06:59.331Z,22.70
2022-08-29T22:09:03.191Z,22.70
2022-08-29T22:11:18.289Z,22.60
2022-08-29T22:13:22.569Z,22.60
2022-08-29T22:15:43.523Z,22.60
2022-08-29T22:17:45.300Z,22.60
2022-08-29T22:19:47.488Z,22.50
2022-08-29T22:21:54.448Z,22.50
2022-08-29T22:23:56.583Z,22.40
2022-08-29T22:26:02.989Z,22.40
2022-08-29T22:28:05.819Z,22.40
2022-08-29T22:30:08.840Z,22.40
2022-08-29T22:32:10.591Z,22.30
2022-08-29T22:34:16.629Z,22.30
2022-08-29T22:36:19.271Z,22.20
2022-08-29T22:38:21.047Z,22.20
2022-08-29T22:40:23.258Z,22.20
2022-08-29T22:42:25.072Z,22.10
2022-08-29T22:46:48.932Z,22.10
2022-08-29T22:48:53.429Z,22.10
2022-08-29T22:50:58.376Z,22.00
2022-08-29T22:53:01.907Z,22.00
2022-08-29T22:55:10.082Z,22.00
2022-08-29T22:57:16.721Z,21.90
2022-08-29T22:59:18.471Z,21.90
2022-08-29T23:01:20.417Z,21.90
2022-08-29T23:03:22.370Z,21.90
2022-08-29T23:05:24.845Z,21.90
2022-08-29T23:07:27.880Z,21.80
2022-08-29T23:09:35.014Z,21.80
2022-08-29T23:11:37.883Z,21.80
2022-08-29T23:13:42.280Z,21.80
2022-08-29T23:15:44.101Z,21.80
2022-08-29T23:17:46.188Z,21.80
2022-08-29T23:19:50.021Z,21.80
2022-08-29T23:21:56.050Z,21.80
2022-08-29T23:23:59.447Z,21.80
2022-08-29T23:26:01.423Z,21.70
2022-08-29T23:28:03.393Z,21.80
2022-08-29T23:30:08.282Z,21.70
2022-08-29T23:32:10.168Z,21.70
2022-08-29T23:34:14.367Z,21.70
2022-08-29T23:36:16.660Z,21.70
2022-08-29T23:38:18.994Z,21.70
2022-08-29T23:40:21.255Z,21.70
2022-08-29T23:42:27.291Z,21.70
2022-08-29T23:44:29.643Z,21.60
2022-08-29T23:46:31.461Z,21.60
2022-08-29T23:48:33.491Z,21.60
2022-08-29T23:50:38.844Z,21.60
2022-08-29T23:52:44.315Z,21.60
2022-08-29T23:54:46.053Z,21.60
2022-08-29T23:56:48.522Z,21.60
2022-08-29T23:58:50.872Z,21.50
